createdAt,value
2019-02-06T00:00:53.779Z,8.24
2019-02-06T00:03:22.420Z,7.89
2019-02-06T00:05:51.944Z,7.72
2019-02-06T00:08:21.355Z,7.90
2019-02-06T00:10:50.676Z,7.69
2019-02-06T00:13:20.026Z,7.92
2019-02-06T00:15:48.859Z,7.71
2019-02-06T00:18:18.223Z,7.95
2019-02-06T00:20:47.040Z,7.74
2019-02-06T00:23:15.529Z,8.09
2019-02-06T00:25:43.935Z,7.70
2019-02-06T00:31:14.718Z,7.73
2019-02-06T00:33:43.125Z,7.91
2019-02-06T00:36:12.439Z,7.85
2019-02-06T00:38:41.744Z,7.87
2019-02-06T00:41:30.954Z,7.87
2019-02-06T00:43:59.573Z,7.83
2019-02-06T00:46:28.082Z,7.74
2019-02-06T00:48:57.399Z,7.68
2019-02-06T00:51:46.615Z,7.61
2019-02-06T00:54:15.922Z,7.55
2019-02-06T00:56:45.244Z,7.48
2019-02-06T00:59:14.559Z,7.48
2019-02-06T01:01:43.873Z,7.66
2019-02-06T01:04:12.471Z,7.84
2019-02-06T01:06:41.882Z,7.74
2019-02-06T01:09:10.599Z,7.86
2019-02-06T01:11:39.019Z,7.90
2019-02-06T01:14:07.536Z,7.82
2019-02-06T01:16:36.842Z,7.81
2019-02-06T01:19:26.044Z,7.66
2019-02-06T01:21:55.343Z,7.68
2019-02-06T01:24:23.877Z,7.38
2019-02-06T01:26:53.317Z,7.35
2019-02-06T01:29:22.649Z,7.52
2019-02-06T01:31:52.067Z,7.50
2019-02-06T01:34:20.594Z,7.71
2019-02-06T01:36:49.224Z,7.67
2019-02-06T01:39:18.539Z,7.71
2019-02-06T01:41:46.952Z,7.52
2019-02-06T01:44:16.270Z,7.44
2019-02-06T01:46:45.090Z,7.40
2019-02-06T01:49:14.390Z,7.42
2019-02-06T01:51:43.791Z,7.30
2019-02-06T01:54:12.197Z,7.36
2019-02-06T01:56:41.532Z,7.04
2019-02-06T01:59:10.160Z,7.24
2019-02-06T02:01:39.578Z,7.03
2019-02-06T02:04:28.804Z,7.22
2019-02-06T02:06:58.156Z,7.46
2019-02-06T02:09:27.582Z,7.57
2019-02-06T02:11:56.019Z,7.38
2019-02-06T02:14:25.111Z,7.28
2019-02-06T02:16:53.646Z,7.07
2019-02-06T02:22:25.138Z,6.83
2019-02-06T02:24:53.561Z,6.98
2019-02-06T02:27:22.195Z,7.23
2019-02-06T02:29:51.547Z,7.10
2019-02-06T02:32:19.979Z,6.99
2019-02-06T02:34:49.507Z,7.15
2019-02-06T02:37:18.867Z,7.40
2019-02-06T02:39:48.299Z,7.16
2019-02-06T02:42:16.732Z,7.20
2019-02-06T02:44:46.086Z,7.04
2019-02-06T02:47:15.516Z,7.32
2019-02-06T02:49:43.951Z,7.27
2019-02-06T02:52:13.285Z,7.13
2019-02-06T02:55:02.651Z,7.20
2019-02-06T02:57:31.993Z,7.01
2019-02-06T03:00:01.434Z,7.25
2019-02-06T03:05:36.190Z,7.03
2019-02-06T03:08:05.636Z,7.04
2019-02-06T03:10:34.982Z,7.11
2019-02-06T03:13:24.228Z,7.36
2019-02-06T03:15:53.553Z,7.40
2019-02-06T03:18:22.883Z,7.55
2019-02-06T03:20:52.207Z,7.33
2019-02-06T03:23:20.809Z,7.29
2019-02-06T03:25:49.312Z,7.04
2019-02-06T03:31:19.885Z,7.08
2019-02-06T03:36:51.258Z,7.43
2019-02-06T03:39:19.805Z,7.15
2019-02-06T03:41:48.610Z,7.14
2019-02-06T03:47:19.857Z,7.15
2019-02-06T03:49:48.366Z,7.13
2019-02-06T03:52:16.873Z,7.28
2019-02-06T03:54:46.186Z,7.28
2019-02-06T04:00:12.466Z,7.06
2019-02-06T04:02:41.776Z,7.07
2019-02-06T04:08:12.907Z,6.94
2019-02-06T04:10:41.724Z,7.09
2019-02-06T04:15:53.199Z,7.35
2019-02-06T04:18:22.534Z,7.26
2019-02-06T04:20:51.242Z,7.33
2019-02-06T04:23:20.655Z,7.16
2019-02-06T04:25:49.967Z,6.98
2019-02-06T04:28:19.279Z,6.89
2019-02-06T04:30:48.604Z,7.01
2019-02-06T04:33:18.116Z,7.06
2019-02-06T04:35:47.452Z,7.26
2019-02-06T04:38:16.130Z,7.27
2019-02-06T04:40:45.450Z,7.25
2019-02-06T04:43:13.952Z,7.12
2019-02-06T04:45:42.585Z,7.08
2019-02-06T04:48:11.894Z,6.82
2019-02-06T04:50:41.311Z,7.16
2019-02-06T04:53:30.522Z,7.34
2019-02-06T04:55:59.831Z,6.94
2019-02-06T04:58:28.313Z,6.94
2019-02-06T05:00:56.712Z,6.87
2019-02-06T05:03:25.927Z,7.19
2019-02-06T05:05:54.505Z,7.27
2019-02-06T05:08:23.835Z,7.25
2019-02-06T05:10:53.403Z,6.97
2019-02-06T05:13:22.728Z,7.12
2019-02-06T05:15:52.082Z,7.18
2019-02-06T05:18:20.601Z,7.36
2019-02-06T05:21:09.862Z,7.07
2019-02-06T05:23:39.173Z,6.80
2019-02-06T05:26:07.661Z,7.05
2019-02-06T05:28:36.310Z,7.33
2019-02-06T05:31:04.818Z,7.37
2019-02-06T05:33:34.476Z,7.29
2019-02-06T05:36:04.320Z,7.45
2019-02-06T05:38:33.424Z,7.55
2019-02-06T05:41:02.727Z,7.15
2019-02-06T05:43:32.035Z,7.26
2019-02-06T05:46:00.555Z,7.14
2019-02-06T05:48:49.783Z,6.94
2019-02-06T05:51:18.297Z,6.96
2019-02-06T05:53:46.809Z,6.87
2019-02-06T05:56:16.138Z,6.98
2019-02-06T05:58:45.441Z,7.20
2019-02-06T06:01:35.033Z,7.19
2019-02-06T06:04:04.550Z,7.42
2019-02-06T06:06:34.122Z,7.13
2019-02-06T06:11:45.092Z,6.98
2019-02-06T06:14:14.421Z,7.04
2019-02-06T06:16:43.732Z,7.36
2019-02-06T06:19:13.047Z,7.26
2019-02-06T06:21:42.381Z,7.33
2019-02-06T06:24:11.688Z,7.49
2019-02-06T06:26:40.409Z,7.42
2019-02-06T06:29:08.941Z,7.46
2019-02-06T06:31:38.263Z,7.38
2019-02-06T06:34:07.587Z,7.33
2019-02-06T06:36:36.921Z,7.34
2019-02-06T06:39:07.425Z,7.48
2019-02-06T06:41:36.243Z,7.38
2019-02-06T06:44:05.566Z,7.26
2019-02-06T06:46:34.883Z,7.27
2019-02-06T06:49:04.294Z,7.26
2019-02-06T06:51:33.640Z,7.52
2019-02-06T06:54:02.070Z,8.17
2019-02-06T06:56:30.903Z,7.66
2019-02-06T06:59:00.219Z,7.43
2019-02-06T07:01:29.554Z,7.38
2019-02-06T07:03:58.064Z,7.31
2019-02-06T07:06:26.473Z,7.33
2019-02-06T07:08:55.175Z,7.27
2019-02-06T07:11:23.711Z,7.46
2019-02-06T07:13:52.229Z,7.43
2019-02-06T07:16:20.643Z,7.31
2019-02-06T07:18:49.961Z,7.20
2019-02-06T07:21:18.374Z,7.25
2019-02-06T07:23:47.684Z,7.27
2019-02-06T07:26:17.006Z,7.50
2019-02-06T07:29:06.334Z,7.12
2019-02-06T07:31:34.847Z,7.24
2019-02-06T07:34:04.415Z,7.45
2019-02-06T07:36:33.691Z,7.23
2019-02-06T07:42:07.133Z,7.22
2019-02-06T07:44:35.546Z,7.28
2019-02-06T07:47:03.956Z,7.19
2019-02-06T07:49:53.176Z,7.37
2019-02-06T07:52:22.512Z,7.26
2019-02-06T07:54:51.934Z,7.35
2019-02-06T08:00:23.068Z,7.33
2019-02-06T08:02:52.983Z,7.36
2019-02-06T08:08:35.328Z,7.40
2019-02-06T08:11:12.625Z,7.06
2019-02-06T08:19:26.751Z,7.15
2019-02-06T08:21:56.070Z,7.30
2019-02-06T08:24:25.402Z,7.15
2019-02-06T08:26:54.782Z,7.15
2019-02-06T08:29:24.118Z,7.14
2019-02-06T08:31:53.436Z,7.06
2019-02-06T08:34:42.643Z,7.00
2019-02-06T08:37:11.971Z,6.97
2019-02-06T08:39:40.480Z,6.91
2019-02-06T08:42:08.987Z,7.00
2019-02-06T08:44:38.311Z,7.16
2019-02-06T08:47:07.647Z,6.92
2019-02-06T08:49:36.997Z,7.07
2019-02-06T08:52:06.317Z,7.16
2019-02-06T08:54:34.835Z,7.12
2019-02-06T08:57:04.288Z,6.96
2019-02-06T08:59:36.112Z,6.83
2019-02-06T09:02:22.812Z,7.09
2019-02-06T09:04:55.806Z,7.11
2019-02-06T09:07:40.551Z,6.85
2019-02-06T09:10:13.418Z,7.01
2019-02-06T09:12:41.982Z,6.97
2019-02-06T09:15:11.576Z,6.92
2019-02-06T09:17:40.078Z,6.81
2019-02-06T09:20:12.699Z,6.91
2019-02-06T09:22:41.740Z,7.03
2019-02-06T09:25:10.929Z,6.88
2019-02-06T09:27:39.445Z,7.02
2019-02-06T09:30:22.899Z,6.79
2019-02-06T09:35:54.342Z,7.01
2019-02-06T09:38:22.850Z,6.60
2019-02-06T09:40:52.172Z,6.62
2019-02-06T09:43:21.492Z,6.58
2019-02-06T09:45:50.893Z,6.70
2019-02-06T09:48:20.222Z,6.77
2019-02-06T09:50:49.550Z,6.71
2019-02-06T09:53:18.872Z,6.74
2019-02-06T09:55:48.171Z,6.56
2019-02-06T09:58:16.587Z,6.70
2019-02-06T10:01:05.820Z,6.51
2019-02-06T10:03:34.427Z,6.75
2019-02-06T10:06:03.840Z,6.70
2019-02-06T10:08:33.168Z,6.55
2019-02-06T10:11:01.878Z,6.41
2019-02-06T10:13:31.224Z,6.71
2019-02-06T10:16:00.553Z,6.74
2019-02-06T10:18:29.862Z,6.85
2019-02-06T10:20:59.177Z,6.90
2019-02-06T10:23:28.493Z,6.68
2019-02-06T10:25:57.101Z,6.47
2019-02-06T10:28:25.823Z,6.73
2019-02-06T10:30:55.135Z,6.59
2019-02-06T10:33:24.446Z,6.69
2019-02-06T10:35:53.772Z,6.68
2019-02-06T10:38:23.192Z,6.66
2019-02-06T10:40:52.539Z,6.62
2019-02-06T10:43:41.751Z,6.53
2019-02-06T10:46:10.409Z,6.59
2019-02-06T10:48:38.915Z,6.58
2019-02-06T10:51:07.508Z,6.75
2019-02-06T10:53:36.893Z,6.65
2019-02-06T10:56:06.302Z,6.79
2019-02-06T10:58:35.659Z,6.68
2019-02-06T11:01:05.192Z,6.35
2019-02-06T11:03:34.550Z,6.49
2019-02-06T11:09:06.997Z,6.66
2019-02-06T11:11:35.599Z,6.35
2019-02-06T11:14:05.206Z,6.22
2019-02-06T11:16:34.575Z,6.41
2019-02-06T11:19:04.192Z,6.49
2019-02-06T11:21:33.530Z,6.60
2019-02-06T11:24:02.843Z,6.50
2019-02-06T11:26:31.459Z,6.28
2019-02-06T11:29:00.001Z,6.56
2019-02-06T11:31:29.311Z,6.35
2019-02-06T11:34:18.528Z,6.52
2019-02-06T11:36:47.858Z,6.35
2019-02-06T11:41:59.664Z,6.26
2019-02-06T11:44:28.973Z,6.19
2019-02-06T11:46:58.421Z,6.30
2019-02-06T11:52:14.239Z,6.40
2019-02-06T11:54:42.962Z,6.68
2019-02-06T11:57:12.281Z,6.53
2019-02-06T11:59:40.799Z,6.55
2019-02-06T12:02:10.125Z,6.55
2019-02-06T12:04:39.473Z,6.36
2019-02-06T12:07:08.820Z,6.06
2019-02-06T12:10:09.010Z,6.27
2019-02-06T12:12:28.451Z,6.28
2019-02-06T12:14:57.769Z,6.11
2019-02-06T12:17:27.103Z,6.21
2019-02-06T12:19:55.622Z,6.27
2019-02-06T12:22:24.944Z,6.38
2019-02-06T12:24:54.251Z,6.31
2019-02-06T12:27:22.766Z,6.27
2019-02-06T12:29:52.090Z,6.38
2019-02-06T12:32:21.419Z,6.24
2019-02-06T12:34:50.731Z,6.27
2019-02-06T12:37:39.992Z,6.18
2019-02-06T12:40:20.830Z,6.18
2019-02-06T12:42:40.254Z,5.84
2019-02-06T12:45:09.044Z,5.88
2019-02-06T12:47:38.364Z,5.93
2019-02-06T12:50:08.498Z,5.89
2019-02-06T12:52:37.959Z,5.77
2019-02-06T12:55:10.002Z,5.92
2019-02-06T12:57:38.612Z,5.65
2019-02-06T13:00:12.013Z,5.56
2019-02-06T13:02:40.637Z,5.52
2019-02-06T13:05:30.144Z,5.51
2019-02-06T13:07:58.773Z,5.35
2019-02-06T13:10:34.027Z,5.55
2019-02-06T13:13:16.619Z,5.43
2019-02-06T13:15:47.333Z,5.61
2019-02-06T13:18:35.217Z,5.55
2019-02-06T13:21:04.668Z,5.65
2019-02-06T13:23:34.053Z,5.70
2019-02-06T13:26:03.566Z,5.60
2019-02-06T13:28:32.874Z,5.63
2019-02-06T13:31:02.198Z,5.86
2019-02-06T13:33:31.311Z,5.86
2019-02-06T13:35:59.925Z,5.80
2019-02-06T13:38:29.236Z,5.88
2019-02-06T13:40:57.795Z,5.98
2019-02-06T13:43:27.113Z,5.92
2019-02-06T13:45:56.467Z,5.79
2019-02-06T13:48:25.806Z,5.70
2019-02-06T13:50:55.285Z,5.74
2019-02-06T13:53:24.608Z,5.90
2019-02-06T13:55:53.936Z,5.70
2019-02-06T13:58:22.537Z,5.68
2019-02-06T14:00:52.477Z,5.66
2019-02-06T14:03:40.367Z,5.75
2019-02-06T14:06:29.688Z,5.71
2019-02-06T14:08:59.006Z,5.85
2019-02-06T14:14:11.197Z,5.80
2019-02-06T14:16:40.522Z,5.75
2019-02-06T14:19:09.835Z,5.73
2019-02-06T14:21:39.152Z,5.72
2019-02-06T14:24:40.315Z,5.76
2019-02-06T14:27:48.385Z,6.04
2019-02-06T14:30:55.919Z,5.73
2019-02-06T14:34:03.135Z,5.80
2019-02-06T14:37:11.196Z,5.75
2019-02-06T14:40:18.747Z,5.85
2019-02-06T14:43:15.096Z,5.98
2019-02-06T14:46:22.648Z,5.89
2019-02-06T14:49:14.997Z,6.08
2019-02-06T14:52:11.903Z,6.04
2019-02-06T14:54:59.403Z,6.14
2019-02-06T14:57:54.707Z,5.91
2019-02-06T15:01:02.743Z,6.13
2019-02-06T15:04:10.391Z,6.24
2019-02-06T15:07:17.735Z,6.16
2019-02-06T15:10:25.383Z,6.08
2019-02-06T15:13:32.723Z,6.17
2019-02-06T15:16:39.968Z,6.22
2019-02-06T15:19:36.331Z,5.94
2019-02-06T15:22:44.382Z,6.20
2019-02-06T15:25:38.317Z,6.06
2019-02-06T15:28:27.105Z,5.97
2019-02-06T15:31:34.250Z,6.04
2019-02-06T15:34:41.694Z,6.08
2019-02-06T15:37:49.507Z,5.81
2019-02-06T15:40:57.563Z,5.91
2019-02-06T15:43:50.014Z,5.79
2019-02-06T15:46:50.653Z,5.88
2019-02-06T15:49:58.688Z,5.89
2019-02-06T15:53:06.162Z,5.79
2019-02-06T15:56:13.334Z,6.01
2019-02-06T15:59:06.111Z,5.92
2019-02-06T16:02:14.151Z,5.92
2019-02-06T16:05:40.856Z,6.00
2019-02-06T16:08:48.497Z,5.99
2019-02-06T16:11:47.952Z,6.09
2019-02-06T16:14:55.999Z,6.00
2019-02-06T16:18:03.659Z,5.99
2019-02-06T16:21:11.699Z,6.00
2019-02-06T16:24:06.721Z,6.10
2019-02-06T16:27:14.816Z,6.14
2019-02-06T16:30:24.708Z,6.04
2019-02-06T16:33:32.779Z,6.02
2019-02-06T16:36:40.258Z,6.03
2019-02-06T16:39:47.409Z,5.95
2019-02-06T16:42:54.643Z,5.73
2019-02-06T16:45:50.411Z,5.66
2019-02-06T16:48:57.886Z,5.70
2019-02-06T16:52:05.288Z,5.71
2019-02-06T16:55:06.719Z,5.85
2019-02-06T16:58:14.056Z,5.76
2019-02-06T17:01:21.693Z,5.86
2019-02-06T17:07:23.486Z,5.93
2019-02-06T17:10:30.729Z,5.68
2019-02-06T17:13:58.715Z,5.72
2019-02-06T17:17:05.913Z,5.70
2019-02-06T17:20:13.968Z,5.92
2019-02-06T17:23:21.275Z,5.78
2019-02-06T17:26:29.317Z,5.74
2019-02-06T17:29:36.615Z,5.45
2019-02-06T17:32:44.668Z,5.57
2019-02-06T17:35:52.185Z,5.77
2019-02-06T17:39:00.416Z,5.84
2019-02-06T17:41:52.430Z,5.71
2019-02-06T17:44:44.844Z,5.58
2019-02-06T17:47:52.147Z,5.48
2019-02-06T17:50:54.903Z,5.59
2019-02-06T17:53:49.171Z,5.47
2019-02-06T17:56:18.670Z,5.42
2019-02-06T17:58:47.125Z,5.59
2019-02-06T18:01:37.460Z,5.49
2019-02-06T18:04:09.162Z,5.69
2019-02-06T18:06:37.866Z,5.78
2019-02-06T18:12:11.590Z,5.56
2019-02-06T18:14:41.020Z,5.70
2019-02-06T18:17:09.536Z,5.51
2019-02-06T18:19:39.559Z,5.61
2019-02-06T18:22:08.528Z,5.37
2019-02-06T18:24:37.611Z,5.40
2019-02-06T18:27:06.921Z,5.37
2019-02-06T18:29:36.230Z,5.40
2019-02-06T18:32:05.548Z,5.26
2019-02-06T18:34:34.874Z,5.39
2019-02-06T18:37:04.387Z,5.28
2019-02-06T18:39:33.890Z,5.31
2019-02-06T18:42:04.118Z,5.43
2019-02-06T18:44:33.049Z,5.46
2019-02-06T18:47:02.669Z,5.59
2019-02-06T18:49:31.291Z,5.35
2019-02-06T18:51:59.820Z,5.33
2019-02-06T18:54:29.346Z,5.36
2019-02-06T18:56:58.666Z,5.46
2019-02-06T18:59:28.010Z,5.39
2019-02-06T19:01:57.451Z,5.46
2019-02-06T19:04:26.842Z,5.34
2019-02-06T19:06:56.157Z,5.23
2019-02-06T19:09:25.483Z,5.33
2019-02-06T19:11:54.929Z,5.26
2019-02-06T19:14:24.349Z,5.33
2019-02-06T19:16:52.784Z,5.25
2019-02-06T19:19:25.458Z,5.29
2019-02-06T19:22:10.870Z,5.26
2019-02-06T19:24:39.606Z,5.43
2019-02-06T19:27:09.138Z,5.42
2019-02-06T19:29:38.457Z,5.40
2019-02-06T19:32:07.771Z,5.29
2019-02-06T19:34:37.084Z,5.37
2019-02-06T19:37:06.412Z,5.28
2019-02-06T19:39:35.727Z,5.26
2019-02-06T19:42:04.349Z,5.47
2019-02-06T19:44:32.969Z,5.33
2019-02-06T19:47:02.284Z,5.40
2019-02-06T19:49:31.582Z,5.17
2019-02-06T19:52:00.906Z,5.31
2019-02-06T19:54:30.019Z,5.49
2019-02-06T19:56:59.332Z,5.36
2019-02-06T19:59:27.762Z,5.30
2019-02-06T20:01:57.280Z,5.38
2019-02-06T20:04:25.895Z,5.52
2019-02-06T20:06:55.314Z,5.42
2019-02-06T20:09:24.748Z,5.23
2019-02-06T20:11:54.252Z,5.14
2019-02-06T20:14:23.569Z,5.17
2019-02-06T20:16:52.907Z,5.43
2019-02-06T20:19:42.102Z,5.28
2019-02-06T20:22:11.411Z,5.28
2019-02-06T20:24:40.727Z,5.28
2019-02-06T20:27:10.033Z,5.38
2019-02-06T20:29:39.351Z,5.52
2019-02-06T20:32:28.581Z,5.58
2019-02-06T20:34:57.912Z,5.31
2019-02-06T20:37:26.320Z,5.33
2019-02-06T20:39:55.634Z,5.58
2019-02-06T20:42:24.960Z,5.40
2019-02-06T20:45:14.435Z,5.20
2019-02-06T20:47:43.856Z,5.27
2019-02-06T20:50:24.781Z,5.20
2019-02-06T20:55:57.359Z,5.14
2019-02-06T20:58:26.663Z,5.21
2019-02-06T21:00:56.090Z,5.38
2019-02-06T21:03:45.199Z,5.32
2019-02-06T21:06:14.590Z,5.48
2019-02-06T21:11:45.300Z,5.48
2019-02-06T21:14:14.601Z,5.53
2019-02-06T21:16:43.915Z,5.62
2019-02-06T21:19:24.072Z,5.40
2019-02-06T21:21:52.902Z,5.39
2019-02-06T21:24:42.734Z,5.23
2019-02-06T21:27:12.044Z,5.35
2019-02-06T21:32:43.294Z,5.37
2019-02-06T21:35:12.808Z,5.29
2019-02-06T21:37:41.535Z,5.37
2019-02-06T21:43:13.818Z,5.38
2019-02-06T21:48:45.138Z,5.35
2019-02-06T21:51:14.458Z,5.28
2019-02-06T21:53:43.171Z,5.22
2019-02-06T21:59:14.541Z,5.28
2019-02-06T22:01:43.048Z,5.20
2019-02-06T22:07:13.645Z,5.30
2019-02-06T22:12:44.122Z,5.20
2019-02-06T22:15:18.270Z,5.36
2019-02-06T22:20:49.775Z,5.22
2019-02-06T22:26:22.820Z,5.23
2019-02-06T22:28:52.492Z,5.06
2019-02-06T22:31:22.173Z,5.06
2019-02-06T22:33:51.759Z,5.19
2019-02-06T22:36:21.454Z,5.46
2019-02-06T22:38:51.334Z,5.29
2019-02-06T22:41:21.025Z,5.51
2019-02-06T22:46:52.287Z,5.44
2019-02-06T22:52:23.773Z,5.19
2019-02-06T22:58:16.175Z,5.14
2019-02-06T23:01:10.526Z,5.48
2019-02-06T23:03:41.894Z,5.43
2019-02-06T23:09:13.274Z,5.29
2019-02-06T23:14:44.625Z,5.07
2019-02-06T23:17:13.617Z,5.19
2019-02-06T23:19:54.158Z,5.38
2019-02-06T23:22:22.933Z,5.16
2019-02-06T23:24:52.505Z,5.14
2019-02-06T23:27:34.238Z,5.45
2019-02-06T23:32:58.210Z,5.52
2019-02-06T23:35:27.094Z,5.57
2019-02-06T23:37:56.712Z,5.51
2019-02-06T23:40:26.495Z,5.23
2019-02-06T23:42:56.289Z,5.16
2019-02-06T23:51:30.656Z,5.25
2019-02-06T23:57:01.946Z,5.62
